createdAt,value
2022-10-08T00:00:18.954Z,63.82
2022-10-08T00:00:55.349Z,63.91
2022-10-08T00:01:27.771Z,63.73
2022-10-08T00:01:59.951Z,63.56
2022-10-08T00:02:34.849Z,63.83
2022-10-08T00:03:06.939Z,63.83
2022-10-08T00:03:41.204Z,63.82
2022-10-08T00:04:15.913Z,63.74
2022-10-08T00:04:48.083Z,63.79
2022-10-08T00:05:20.166Z,63.90
2022-10-08T00:05:56.373Z,63.75
2022-10-08T00:06:32.787Z,63.90
2022-10-08T00:07:04.978Z,63.82
2022-10-08T00:07:42.203Z,63.66
2022-10-08T00:08:14.301Z,63.93
2022-10-08T00:08:53.143Z,64.10
2022-10-08T00:09:25.315Z,63.88
2022-10-08T00:09:57.403Z,63.61
2022-10-08T00:10:33.091Z,63.58
2022-10-08T00:11:07.147Z,63.80
2022-10-08T00:11:40.491Z,63.90
2022-10-08T00:12:15.162Z,63.71
2022-10-08T00:12:47.814Z,63.72
2022-10-08T00:13:20.535Z,63.54
2022-10-08T00:13:56.401Z,63.70
2022-10-08T00:14:28.499Z,63.66
2022-10-08T00:15:00.602Z,63.22
2022-10-08T00:15:41.314Z,63.49
2022-10-08T00:16:15.444Z,63.28
2022-10-08T00:16:50.249Z,63.11
2022-10-08T00:17:22.354Z,63.45
2022-10-08T00:17:54.585Z,63.58
2022-10-08T00:18:26.991Z,63.37
2022-10-08T00:19:03.951Z,63.42
2022-10-08T00:19:36.113Z,63.29
2022-10-08T00:20:09.805Z,63.11
2022-10-08T00:20:44.491Z,63.42
2022-10-08T00:21:18.476Z,63.20
2022-10-08T00:21:53.413Z,63.34
2022-10-08T00:22:28.080Z,63.52
2022-10-08T00:23:02.902Z,63.55
2022-10-08T00:23:35.387Z,63.13
2022-10-08T00:24:11.917Z,63.20
2022-10-08T00:24:44.487Z,63.71
2022-10-08T00:25:16.812Z,63.49
2022-10-08T00:25:48.969Z,63.85
2022-10-08T00:26:26.648Z,63.54
2022-10-08T00:27:00.485Z,63.67
2022-10-08T00:27:33.638Z,63.44
2022-10-08T00:28:08.540Z,63.41
2022-10-08T00:28:43.948Z,63.74
2022-10-08T00:29:20.144Z,63.35
2022-10-08T00:29:52.343Z,63.48
2022-10-08T00:30:24.413Z,63.19
2022-10-08T00:30:59.116Z,63.66
2022-10-08T00:31:33.486Z,63.46
2022-10-08T00:32:07.189Z,63.26
2022-10-08T00:32:41.858Z,63.74
2022-10-08T00:33:14.261Z,63.41
2022-10-08T00:33:49.835Z,63.50
2022-10-08T00:34:26.535Z,63.66
2022-10-08T00:34:58.643Z,63.78
2022-10-08T00:35:30.751Z,63.87
2022-10-08T00:36:06.411Z,63.33
2022-10-08T00:36:39.735Z,63.88
2022-10-08T00:37:11.820Z,63.61
2022-10-08T00:37:46.478Z,63.90
2022-10-08T00:38:21.267Z,63.97
2022-10-08T00:38:55.928Z,64.06
2022-10-08T00:39:30.589Z,63.86
2022-10-08T00:40:02.726Z,63.67
2022-10-08T00:40:42.138Z,64.08
2022-10-08T00:41:22.258Z,63.76
2022-10-08T00:41:56.033Z,64.41
2022-10-08T00:42:28.140Z,63.99
2022-10-08T00:43:03.438Z,63.98
2022-10-08T00:43:42.559Z,64.26
2022-10-08T00:44:44.657Z,64.29
2022-10-08T00:45:19.381Z,64.66
2022-10-08T00:45:51.605Z,64.39
2022-10-08T00:46:29.082Z,64.60
2022-10-08T00:47:01.359Z,64.23
2022-10-08T00:47:42.542Z,64.24
2022-10-08T00:48:25.685Z,64.26
2022-10-08T00:49:02.635Z,64.70
2022-10-08T00:49:37.296Z,64.64
2022-10-08T00:50:14.813Z,64.85
2022-10-08T00:50:47.980Z,64.95
2022-10-08T00:51:23.413Z,64.81
2022-10-08T00:51:56.827Z,64.54
2022-10-08T00:52:33.750Z,64.50
2022-10-08T00:53:10.653Z,64.92
2022-10-08T00:53:45.489Z,64.68
2022-10-08T00:54:19.580Z,64.90
2022-10-08T00:54:51.982Z,64.84
2022-10-08T00:55:29.421Z,64.37
2022-10-08T00:56:02.839Z,64.70
2022-10-08T00:56:38.002Z,64.47
2022-10-08T00:57:10.634Z,64.41
2022-10-08T00:57:46.638Z,64.12
2022-10-08T00:58:23.154Z,64.25
2022-10-08T00:58:55.405Z,64.49
2022-10-08T00:59:30.247Z,64.13
2022-10-08T01:00:05.076Z,63.95
2022-10-08T01:00:37.291Z,63.88
2022-10-08T01:01:12.158Z,64.12
2022-10-08T01:01:44.730Z,64.16
2022-10-08T01:02:17.150Z,63.95
2022-10-08T01:02:52.306Z,64.17
2022-10-08T01:03:24.767Z,64.43
2022-10-08T01:03:57.631Z,64.25
2022-10-08T01:04:32.626Z,64.26
2022-10-08T01:05:06.669Z,64.42
2022-10-08T01:05:47.585Z,64.16
2022-10-08T01:06:30.116Z,64.26
2022-10-08T01:07:11.692Z,64.11
2022-10-08T01:07:51.832Z,64.32
2022-10-08T01:08:35.076Z,64.38
2022-10-08T01:09:18.814Z,64.26
2022-10-08T01:10:01.250Z,64.15
2022-10-08T01:10:43.883Z,64.29
2022-10-08T01:11:29.119Z,64.48
2022-10-08T01:12:08.810Z,64.69
2022-10-08T01:12:52.340Z,64.32
2022-10-08T01:13:37.126Z,64.51
2022-10-08T01:14:25.987Z,64.71
2022-10-08T01:15:00.950Z,64.88
2022-10-08T01:15:40.170Z,65.42
2022-10-08T01:16:33.044Z,65.42
2022-10-08T01:17:11.572Z,65.55
2022-10-08T01:17:50.059Z,65.42
2022-10-08T01:18:34.794Z,65.57
2022-10-08T01:19:27.080Z,65.50
2022-10-08T01:20:21.386Z,65.23
2022-10-08T01:21:02.743Z,65.39
2022-10-08T01:21:45.251Z,65.10
2022-10-08T01:22:32.944Z,65.54
2022-10-08T01:23:27.225Z,65.33
2022-10-08T01:24:44.683Z,65.02
2022-10-08T01:25:37.852Z,65.41
2022-10-08T01:26:25.766Z,64.98
2022-10-08T01:27:06.794Z,64.91
2022-10-08T01:27:43.741Z,65.05
2022-10-08T01:28:23.090Z,64.80
2022-10-08T01:29:04.723Z,64.76
2022-10-08T01:29:39.986Z,64.98
2022-10-08T01:30:15.650Z,64.81
2022-10-08T01:30:55.084Z,64.64
2022-10-08T01:31:31.288Z,64.75
2022-10-08T01:32:08.446Z,65.13
2022-10-08T01:32:49.774Z,65.13
2022-10-08T01:33:27.236Z,64.69
2022-10-08T01:34:03.484Z,64.93
2022-10-08T01:34:43.791Z,64.54
2022-10-08T01:35:20.789Z,65.06
2022-10-08T01:35:57.496Z,65.01
2022-10-08T01:36:38.703Z,65.18
2022-10-08T01:37:15.923Z,65.32
2022-10-08T01:37:49.745Z,65.57
2022-10-08T01:38:27.475Z,65.52
2022-10-08T01:39:07.192Z,65.32
2022-10-08T01:39:41.218Z,65.55
2022-10-08T01:40:21.591Z,65.77
2022-10-08T01:40:59.179Z,65.43
2022-10-08T01:41:33.734Z,65.66
2022-10-08T01:42:11.838Z,65.66
2022-10-08T01:42:49.670Z,65.66
2022-10-08T01:43:24.143Z,65.45
2022-10-08T01:44:04.839Z,65.62
2022-10-08T01:44:40.576Z,65.64
2022-10-08T01:45:17.927Z,65.37
2022-10-08T01:45:57.732Z,65.12
2022-10-08T01:46:31.988Z,65.12
2022-10-08T01:47:07.609Z,64.99
2022-10-08T01:47:44.315Z,65.37
2022-10-08T01:48:23.636Z,65.08
2022-10-08T01:49:01.818Z,64.70
2022-10-08T01:49:43.452Z,65.16
2022-10-08T01:50:21.551Z,64.84
2022-10-08T01:50:58.329Z,64.98
2022-10-08T01:51:34.987Z,64.88
2022-10-08T01:52:15.239Z,65.28
2022-10-08T01:52:52.922Z,64.75
2022-10-08T01:53:28.815Z,65.39
2022-10-08T01:54:07.352Z,65.01
2022-10-08T01:54:43.367Z,65.09
2022-10-08T01:55:19.934Z,64.76
2022-10-08T01:55:57.398Z,64.77
2022-10-08T01:56:32.420Z,65.14
2022-10-08T01:57:06.287Z,65.13
2022-10-08T01:57:42.960Z,65.18
2022-10-08T01:58:23.886Z,64.91
2022-10-08T01:59:00.406Z,65.31
2022-10-08T01:59:40.008Z,65.17
2022-10-08T02:00:15.224Z,65.25
2022-10-08T02:00:50.700Z,65.04
2022-10-08T02:01:30.571Z,65.10
2022-10-08T02:02:08.552Z,65.31
2022-10-08T02:02:41.882Z,65.01
2022-10-08T02:03:16.675Z,65.44
2022-10-08T02:04:03.649Z,65.42
2022-10-08T02:04:35.933Z,65.56
2022-10-08T02:05:08.977Z,65.96
2022-10-08T02:05:48.320Z,65.80
2022-10-08T02:06:20.638Z,66.09
2022-10-08T02:06:56.699Z,66.06
2022-10-08T02:07:34.326Z,65.91
2022-10-08T02:08:06.500Z,66.17
2022-10-08T02:08:38.594Z,66.35
2022-10-08T02:09:11.702Z,66.03
2022-10-08T02:09:49.182Z,66.18
2022-10-08T02:10:24.385Z,66.09
2022-10-08T02:10:56.963Z,66.34
2022-10-08T02:11:31.663Z,66.57
2022-10-08T02:12:05.145Z,66.29
2022-10-08T02:12:41.524Z,66.55
2022-10-08T02:13:18.154Z,66.44
2022-10-08T02:13:50.313Z,66.64
2022-10-08T02:14:25.998Z,66.44
2022-10-08T02:15:02.000Z,66.22
2022-10-08T02:15:41.505Z,66.29
2022-10-08T02:16:21.192Z,66.57
2022-10-08T02:17:04.845Z,66.60
2022-10-08T02:17:43.930Z,66.59
2022-10-08T02:18:19.189Z,66.68
2022-10-08T02:18:58.636Z,66.36
2022-10-08T02:19:46.848Z,66.42
2022-10-08T02:20:29.484Z,66.38
2022-10-08T02:21:09.082Z,66.28
2022-10-08T02:21:43.931Z,66.30
2022-10-08T02:22:22.227Z,66.51
2022-10-08T02:22:59.605Z,66.25
2022-10-08T02:23:38.280Z,66.73
2022-10-08T02:24:19.757Z,66.35
2022-10-08T02:24:56.341Z,66.86
2022-10-08T02:25:33.923Z,66.75
2022-10-08T02:26:12.996Z,66.85
2022-10-08T02:26:49.573Z,67.09
2022-10-08T02:27:28.075Z,66.79
2022-10-08T02:28:12.677Z,66.85
2022-10-08T02:28:50.806Z,66.95
2022-10-08T02:29:28.057Z,66.76
2022-10-08T02:30:08.189Z,66.93
2022-10-08T02:30:49.482Z,67.27
2022-10-08T02:31:26.439Z,67.06
2022-10-08T02:32:05.251Z,67.44
2022-10-08T02:32:43.160Z,67.20
2022-10-08T02:33:21.865Z,66.76
2022-10-08T02:34:01.757Z,67.12
2022-10-08T02:34:40.713Z,67.52
2022-10-08T02:35:18.419Z,66.97
2022-10-08T02:35:54.107Z,67.15
2022-10-08T02:36:33.162Z,67.43
2022-10-08T02:37:10.731Z,67.04
2022-10-08T02:37:46.144Z,67.52
2022-10-08T02:38:25.077Z,67.45
2022-10-08T02:39:01.638Z,67.43
2022-10-08T02:39:37.275Z,67.25
2022-10-08T02:40:12.522Z,67.62
2022-10-08T02:40:51.487Z,67.37
2022-10-08T02:41:29.947Z,67.55
2022-10-08T02:42:06.900Z,67.50
2022-10-08T02:42:46.379Z,67.43
2022-10-08T02:43:22.814Z,67.30
2022-10-08T02:44:03.244Z,67.29
2022-10-08T02:44:41.462Z,67.20
2022-10-08T02:45:17.527Z,67.19
2022-10-08T02:45:55.638Z,67.05
2022-10-08T02:46:36.420Z,67.27
2022-10-08T02:47:12.315Z,67.40
2022-10-08T02:47:48.071Z,67.28
2022-10-08T02:48:29.763Z,67.63
2022-10-08T02:49:05.613Z,67.17
2022-10-08T02:49:41.532Z,67.32
2022-10-08T02:50:21.463Z,67.38
2022-10-08T02:50:55.382Z,67.15
2022-10-08T02:51:30.655Z,67.38
2022-10-08T02:52:07.678Z,67.37
2022-10-08T02:52:43.608Z,67.40
2022-10-08T02:53:18.395Z,67.48
2022-10-08T02:53:53.645Z,67.06
2022-10-08T02:54:26.337Z,67.38
2022-10-08T02:55:00.613Z,67.67
2022-10-08T02:55:42.019Z,67.15
2022-10-08T02:56:21.621Z,67.43
2022-10-08T02:56:58.572Z,67.51
2022-10-08T02:57:35.802Z,67.71
2022-10-08T02:58:14.032Z,67.70
2022-10-08T02:58:47.223Z,67.42
2022-10-08T02:59:23.140Z,67.73
2022-10-08T02:59:59.015Z,67.45
2022-10-08T03:00:35.413Z,67.82
2022-10-08T03:01:13.948Z,67.63
2022-10-08T03:01:52.305Z,67.75
2022-10-08T03:02:32.537Z,67.36
2022-10-08T03:03:14.108Z,67.81
2022-10-08T03:03:53.749Z,67.46
2022-10-08T03:04:30.547Z,67.46
2022-10-08T03:05:08.636Z,67.79
2022-10-08T03:05:42.748Z,67.33
2022-10-08T03:06:16.824Z,67.37
2022-10-08T03:06:50.346Z,67.58
2022-10-08T03:07:26.391Z,67.89
2022-10-08T03:07:59.669Z,67.76
2022-10-08T03:08:33.228Z,67.85
2022-10-08T03:09:09.715Z,67.70
2022-10-08T03:09:44.747Z,67.73
2022-10-08T03:10:18.162Z,67.77
2022-10-08T03:10:53.667Z,67.85
2022-10-08T03:11:25.957Z,67.86
2022-10-08T03:11:59.482Z,67.62
2022-10-08T03:12:34.704Z,67.60
2022-10-08T03:13:08.033Z,67.58
2022-10-08T03:13:44.918Z,67.56
2022-10-08T03:14:24.868Z,67.70
2022-10-08T03:14:57.149Z,67.48
2022-10-08T03:15:30.611Z,67.40
2022-10-08T03:16:10.161Z,67.48
2022-10-08T03:16:45.039Z,67.73
2022-10-08T03:17:22.755Z,67.65
2022-10-08T03:17:58.275Z,68.06
2022-10-08T03:18:31.473Z,67.98
2022-10-08T03:19:04.595Z,67.73
2022-10-08T03:19:39.317Z,67.76
2022-10-08T03:20:12.827Z,67.50
2022-10-08T03:20:47.562Z,67.81
2022-10-08T03:21:23.064Z,67.56
2022-10-08T03:21:56.730Z,68.01
2022-10-08T03:22:29.537Z,67.59
2022-10-08T03:23:04.945Z,67.47
2022-10-08T03:23:37.121Z,67.83
2022-10-08T03:24:10.927Z,68.02
2022-10-08T03:24:45.600Z,68.15
2022-10-08T03:25:17.681Z,68.35
2022-10-08T03:25:49.758Z,68.44
2022-10-08T03:26:24.526Z,68.18
2022-10-08T03:26:56.599Z,68.01
2022-10-08T03:27:28.670Z,68.24
2022-10-08T03:28:03.382Z,67.83
2022-10-08T03:28:35.538Z,68.00
2022-10-08T03:29:08.084Z,67.85
2022-10-08T03:29:45.398Z,67.87
2022-10-08T03:30:17.987Z,68.00
2022-10-08T03:30:50.127Z,67.66
2022-10-08T03:31:24.921Z,68.16
2022-10-08T03:31:57.012Z,67.76
2022-10-08T03:32:29.171Z,68.17
2022-10-08T03:33:04.077Z,68.11
2022-10-08T03:33:36.203Z,67.82
2022-10-08T03:34:08.963Z,67.71
2022-10-08T03:34:43.677Z,67.84
2022-10-08T03:35:16.035Z,67.81
2022-10-08T03:35:48.543Z,67.94
2022-10-08T03:36:25.583Z,67.72
2022-10-08T03:36:57.755Z,67.80
2022-10-08T03:37:30.243Z,67.80
2022-10-08T03:38:04.903Z,68.08
2022-10-08T03:38:37.046Z,68.01
2022-10-08T03:39:10.396Z,67.81
2022-10-08T03:39:45.375Z,67.57
2022-10-08T03:40:17.515Z,67.81
2022-10-08T03:40:54.938Z,67.67
2022-10-08T03:41:31.453Z,67.92
2022-10-08T03:42:03.691Z,68.28
2022-10-08T03:42:35.890Z,67.72
2022-10-08T03:43:10.652Z,67.84
2022-10-08T03:43:42.970Z,68.26
2022-10-08T03:44:15.060Z,68.43
2022-10-08T03:44:53.332Z,68.21
2022-10-08T03:45:25.406Z,68.27
2022-10-08T03:45:57.543Z,68.02
2022-10-08T03:46:32.411Z,67.84
2022-10-08T03:47:04.703Z,67.69
2022-10-08T03:47:36.931Z,67.73
2022-10-08T03:48:09.675Z,68.12
2022-10-08T03:48:45.220Z,67.71
2022-10-08T03:49:17.295Z,67.76
2022-10-08T03:49:49.415Z,67.94
2022-10-08T03:50:25.099Z,67.80
2022-10-08T03:50:59.425Z,67.83
2022-10-08T03:51:31.590Z,67.94
2022-10-08T03:52:06.481Z,67.96
2022-10-08T03:52:38.545Z,67.85
2022-10-08T03:53:10.625Z,68.01
2022-10-08T03:53:46.612Z,67.77
2022-10-08T03:54:18.721Z,68.23
2022-10-08T03:54:50.795Z,68.28
2022-10-08T03:55:25.559Z,68.12
2022-10-08T03:56:01.431Z,68.32
2022-10-08T03:56:33.539Z,68.33
2022-10-08T03:57:08.187Z,68.38
2022-10-08T03:57:40.279Z,68.62
2022-10-08T03:58:12.441Z,68.41
2022-10-08T03:58:47.654Z,68.09
2022-10-08T03:59:20.031Z,68.09
2022-10-08T03:59:54.687Z,68.35
2022-10-08T04:00:29.434Z,68.49
2022-10-08T04:01:03.841Z,68.26
2022-10-08T04:01:36.045Z,68.33
2022-10-08T04:02:08.228Z,68.29
2022-10-08T04:02:43.043Z,68.56
2022-10-08T04:03:15.146Z,68.81
2022-10-08T04:03:47.395Z,68.64
2022-10-08T04:04:25.506Z,68.47
2022-10-08T04:04:58.020Z,68.68
2022-10-08T04:05:30.151Z,68.60
2022-10-08T04:06:05.005Z,68.60
2022-10-08T04:06:37.105Z,68.47
2022-10-08T04:07:09.195Z,68.79
2022-10-08T04:07:43.929Z,68.52
2022-10-08T04:08:16.041Z,68.34
2022-10-08T04:08:48.239Z,68.45
2022-10-08T04:09:22.973Z,68.52
2022-10-08T04:09:55.062Z,68.48
2022-10-08T04:10:27.495Z,68.51
2022-10-08T04:11:02.965Z,68.39
2022-10-08T04:11:37.658Z,68.10
2022-10-08T04:12:09.762Z,68.46
2022-10-08T04:12:42.004Z,68.29
2022-10-08T04:13:17.438Z,68.58
2022-10-08T04:13:49.603Z,68.88
2022-10-08T04:14:21.710Z,68.58
2022-10-08T04:14:59.100Z,68.88
2022-10-08T04:15:31.422Z,68.51
2022-10-08T04:16:05.147Z,68.27
2022-10-08T04:16:39.854Z,68.35
2022-10-08T04:17:11.931Z,68.53
2022-10-08T04:17:44.298Z,68.70
2022-10-08T04:18:19.695Z,68.77
2022-10-08T04:18:51.889Z,68.83
2022-10-08T04:19:24.045Z,68.48
2022-10-08T04:19:58.719Z,68.48
2022-10-08T04:20:32.597Z,68.16
2022-10-08T04:21:06.849Z,68.39
2022-10-08T04:21:38.961Z,68.35
2022-10-08T04:22:13.630Z,68.50
2022-10-08T04:22:46.075Z,68.50
2022-10-08T04:23:18.334Z,68.46
2022-10-08T04:23:50.470Z,68.36
2022-10-08T04:24:25.202Z,68.28
2022-10-08T04:24:57.325Z,67.76
2022-10-08T04:25:29.463Z,68.09
2022-10-08T04:26:04.448Z,68.13
2022-10-08T04:26:36.564Z,68.09
2022-10-08T04:27:11.226Z,67.87
2022-10-08T04:27:43.676Z,67.96
2022-10-08T04:28:15.984Z,68.40
2022-10-08T04:28:48.784Z,68.53
2022-10-08T04:29:23.497Z,68.55
2022-10-08T04:29:58.251Z,68.50
2022-10-08T04:30:30.980Z,68.68
2022-10-08T04:31:07.551Z,68.94
2022-10-08T04:31:40.179Z,68.93
2022-10-08T04:32:12.262Z,69.16
2022-10-08T04:32:47.118Z,68.77
2022-10-08T04:33:20.113Z,69.13
2022-10-08T04:33:52.557Z,69.20
2022-10-08T04:34:27.202Z,69.25
2022-10-08T04:34:59.352Z,68.97
2022-10-08T04:35:31.414Z,69.06
2022-10-08T04:36:10.668Z,68.76
2022-10-08T04:36:42.910Z,69.07
2022-10-08T04:37:15.080Z,69.21
2022-10-08T04:37:49.748Z,69.04
2022-10-08T04:38:22.494Z,69.23
2022-10-08T04:38:57.142Z,68.74
2022-10-08T04:39:29.242Z,68.80
2022-10-08T04:40:01.457Z,68.70
2022-10-08T04:40:36.111Z,68.89
2022-10-08T04:41:09.832Z,69.07
2022-10-08T04:41:41.966Z,69.18
2022-10-08T04:42:16.638Z,68.85
2022-10-08T04:42:51.262Z,69.05
2022-10-08T04:43:23.503Z,69.00
2022-10-08T04:44:02.312Z,68.90
2022-10-08T04:44:34.395Z,69.21
2022-10-08T04:45:10.157Z,68.82
2022-10-08T04:45:43.551Z,68.93
2022-10-08T04:46:20.001Z,69.00
2022-10-08T04:46:52.198Z,68.98
2022-10-08T04:47:24.340Z,69.13
2022-10-08T04:47:59.026Z,68.99
2022-10-08T04:48:31.713Z,69.03
2022-10-08T04:49:03.886Z,68.92
2022-10-08T04:49:38.538Z,69.00
2022-10-08T04:50:10.696Z,69.17
2022-10-08T04:50:42.800Z,68.92
2022-10-08T04:51:15.639Z,68.89
2022-10-08T04:51:50.374Z,69.20
2022-10-08T04:52:22.473Z,69.25
2022-10-08T04:52:54.566Z,69.13
2022-10-08T04:53:27.730Z,69.03
2022-10-08T04:54:02.379Z,68.92
2022-10-08T04:54:34.589Z,69.08
2022-10-08T04:55:08.555Z,68.77
2022-10-08T04:55:40.709Z,68.74
2022-10-08T04:56:17.114Z,68.74
2022-10-08T04:56:49.237Z,68.67
2022-10-08T04:57:21.355Z,68.93
2022-10-08T04:57:56.012Z,68.90
2022-10-08T04:58:28.359Z,68.81
2022-10-08T04:59:03.111Z,68.98
2022-10-08T04:59:35.203Z,68.82
2022-10-08T05:00:18.216Z,68.88
2022-10-08T05:00:53.559Z,68.58
2022-10-08T05:01:26.964Z,68.64
2022-10-08T05:01:59.178Z,68.62
2022-10-08T05:02:33.955Z,68.33
2022-10-08T05:03:06.146Z,68.32
2022-10-08T05:03:39.265Z,68.12
2022-10-08T05:04:13.948Z,68.19
2022-10-08T05:04:46.022Z,68.32
2022-10-08T05:05:18.093Z,68.04
2022-10-08T05:05:50.251Z,68.08
2022-10-08T05:06:26.483Z,67.77
2022-10-08T05:06:58.606Z,67.85
2022-10-08T05:07:30.724Z,67.68
2022-10-08T05:08:05.395Z,68.06
2022-10-08T05:08:37.554Z,67.82
2022-10-08T05:09:09.909Z,67.75
2022-10-08T05:09:44.607Z,67.92
2022-10-08T05:10:16.787Z,67.86
2022-10-08T05:10:49.566Z,67.86
2022-10-08T05:11:26.971Z,67.95
2022-10-08T05:11:59.069Z,67.98
2022-10-08T05:12:31.134Z,68.04
2022-10-08T05:13:06.487Z,67.83
2022-10-08T05:13:39.001Z,67.88
2022-10-08T05:14:13.981Z,68.19
2022-10-08T05:14:46.069Z,67.80
2022-10-08T05:15:20.844Z,67.86
2022-10-08T05:15:53.200Z,67.85
2022-10-08T05:16:29.207Z,67.62
2022-10-08T05:17:01.361Z,67.61
2022-10-08T05:17:33.462Z,67.57
2022-10-08T05:18:05.590Z,67.68
2022-10-08T05:18:41.521Z,67.57
2022-10-08T05:19:13.853Z,67.84
2022-10-08T05:19:45.978Z,67.48
2022-10-08T05:20:20.837Z,67.67
2022-10-08T05:20:52.902Z,67.73
2022-10-08T05:21:27.055Z,67.15
2022-10-08T05:22:01.780Z,67.18
2022-10-08T05:22:34.176Z,67.32
2022-10-08T05:23:06.459Z,67.68
2022-10-08T05:23:42.739Z,67.23
2022-10-08T05:24:14.890Z,67.21
2022-10-08T05:24:46.975Z,67.38
2022-10-08T05:25:21.644Z,67.61
2022-10-08T05:25:53.744Z,67.38
2022-10-08T05:26:46.474Z,67.46
2022-10-08T05:27:22.344Z,67.94
2022-10-08T05:27:54.433Z,68.13
2022-10-08T05:28:26.622Z,67.95
2022-10-08T05:29:03.174Z,67.90
2022-10-08T05:29:35.299Z,67.68
2022-10-08T05:30:08.993Z,67.80
2022-10-08T05:30:46.349Z,67.85
2022-10-08T05:31:18.687Z,67.71
2022-10-08T05:31:50.827Z,68.06
2022-10-08T05:32:25.497Z,68.34
2022-10-08T05:32:57.590Z,67.73
2022-10-08T05:33:29.821Z,68.15
2022-10-08T05:34:04.516Z,68.02
2022-10-08T05:34:36.593Z,68.18
2022-10-08T05:35:09.078Z,68.00
2022-10-08T05:35:43.779Z,68.35
2022-10-08T05:36:17.406Z,68.76
2022-10-08T05:36:49.583Z,68.58
2022-10-08T05:37:24.306Z,68.76
2022-10-08T05:37:56.429Z,68.60
2022-10-08T05:38:34.025Z,68.85
2022-10-08T05:39:10.092Z,68.92
2022-10-08T05:39:42.374Z,68.73
2022-10-08T05:40:14.592Z,68.86
2022-10-08T05:40:46.764Z,68.81
2022-10-08T05:41:24.654Z,69.02
2022-10-08T05:41:56.783Z,68.79
2022-10-08T05:42:28.862Z,69.11
2022-10-08T05:43:03.561Z,68.83
2022-10-08T05:43:35.740Z,68.85
2022-10-08T05:44:09.948Z,69.23
2022-10-08T05:44:45.618Z,69.38
2022-10-08T05:45:18.200Z,69.29
2022-10-08T05:45:53.394Z,69.64
2022-10-08T05:46:30.105Z,69.79
2022-10-08T05:47:02.285Z,69.76
2022-10-08T05:47:34.441Z,69.89
2022-10-08T05:48:09.140Z,69.60
2022-10-08T05:48:42.312Z,69.94
2022-10-08T05:49:18.894Z,69.74
2022-10-08T05:49:53.638Z,69.74
2022-10-08T05:50:25.785Z,70.25
2022-10-08T05:51:03.411Z,70.10
2022-10-08T05:51:39.006Z,70.13
2022-10-08T05:52:11.338Z,70.08
2022-10-08T05:52:43.557Z,70.46
2022-10-08T05:53:18.198Z,70.17
2022-10-08T05:53:52.805Z,70.29
2022-10-08T05:54:25.360Z,70.61
2022-10-08T05:55:00.495Z,70.17
2022-10-08T05:55:32.670Z,70.32
2022-10-08T05:56:07.078Z,70.52
2022-10-08T05:56:41.795Z,70.49
2022-10-08T05:57:13.920Z,70.21
2022-10-08T05:57:46.035Z,70.65
2022-10-08T05:58:20.835Z,70.35
2022-10-08T05:58:54.143Z,70.50
2022-10-08T05:59:28.991Z,70.75
2022-10-08T06:00:01.205Z,70.49
2022-10-08T06:00:43.541Z,70.50
2022-10-08T06:01:23.202Z,70.63
2022-10-08T06:01:55.330Z,70.51
2022-10-08T06:02:30.217Z,70.37
2022-10-08T06:03:02.420Z,70.48
2022-10-08T06:03:34.965Z,70.58
2022-10-08T06:04:09.923Z,70.67
2022-10-08T06:04:42.148Z,70.67
2022-10-08T06:05:14.430Z,70.63
2022-10-08T06:05:49.074Z,70.78
2022-10-08T06:06:22.887Z,70.88
2022-10-08T06:06:55.014Z,70.75
2022-10-08T06:07:29.670Z,70.67
2022-10-08T06:08:01.805Z,70.69
2022-10-08T06:08:34.986Z,70.80
2022-10-08T06:09:11.236Z,70.44
2022-10-08T06:09:45.139Z,70.74
2022-10-08T06:10:19.849Z,70.75
2022-10-08T06:10:53.299Z,70.48
2022-10-08T06:11:25.746Z,70.63
2022-10-08T06:12:00.733Z,70.31
2022-10-08T06:12:32.917Z,70.37
2022-10-08T06:13:05.118Z,70.32
2022-10-08T06:13:37.341Z,70.41
2022-10-08T06:14:13.903Z,70.33
2022-10-08T06:14:46.116Z,70.67
2022-10-08T06:15:18.233Z,70.66
2022-10-08T06:15:57.253Z,70.14
2022-10-08T06:16:34.771Z,70.71
2022-10-08T06:17:07.000Z,70.29
2022-10-08T06:17:41.646Z,70.70
2022-10-08T06:18:13.744Z,70.44
2022-10-08T06:18:45.818Z,70.66
2022-10-08T06:19:20.749Z,70.25
2022-10-08T06:19:52.813Z,70.64
2022-10-08T06:20:27.493Z,70.71
2022-10-08T06:21:06.859Z,70.48
2022-10-08T06:21:38.991Z,70.34
2022-10-08T06:22:11.110Z,70.65
2022-10-08T06:22:45.985Z,70.34
2022-10-08T06:23:19.323Z,70.59
2022-10-08T06:23:53.376Z,70.78
2022-10-08T06:24:28.143Z,70.86
2022-10-08T06:25:00.241Z,70.41
2022-10-08T06:25:36.443Z,70.16
2022-10-08T06:26:12.707Z,70.28
2022-10-08T06:26:45.146Z,69.69
2022-10-08T06:27:19.865Z,70.01
2022-10-08T06:27:51.986Z,70.07
2022-10-08T06:28:24.162Z,69.70
2022-10-08T06:28:59.869Z,69.83
2022-10-08T06:29:32.051Z,69.50
2022-10-08T06:30:05.090Z,69.61
2022-10-08T06:30:41.717Z,69.70
2022-10-08T06:31:14.120Z,69.63
2022-10-08T06:31:49.336Z,69.26
2022-10-08T06:32:24.174Z,69.76
2022-10-08T06:32:56.338Z,69.67
2022-10-08T06:33:28.836Z,69.36
2022-10-08T06:34:02.681Z,69.24
2022-10-08T06:34:37.451Z,69.25
2022-10-08T06:35:09.958Z,69.38
2022-10-08T06:35:42.092Z,69.53
2022-10-08T06:36:19.735Z,69.76
2022-10-08T06:36:51.881Z,69.58
2022-10-08T06:37:24.167Z,69.75
2022-10-08T06:37:58.829Z,69.71
2022-10-08T06:38:30.943Z,69.55
2022-10-08T06:39:05.363Z,69.24
2022-10-08T06:39:42.020Z,69.22
2022-10-08T06:40:17.375Z,69.37
2022-10-08T06:40:49.649Z,69.36
2022-10-08T06:41:25.025Z,69.57
2022-10-08T06:41:57.179Z,69.46
2022-10-08T06:42:29.428Z,69.33
2022-10-08T06:43:07.663Z,69.13
2022-10-08T06:43:42.368Z,69.48
2022-10-08T06:44:15.407Z,69.44
2022-10-08T06:44:50.102Z,69.41
2022-10-08T06:45:22.210Z,69.58
2022-10-08T06:45:55.415Z,69.37
2022-10-08T06:46:31.440Z,69.52
2022-10-08T06:47:06.213Z,69.91
2022-10-08T06:47:40.967Z,69.94
2022-10-08T06:48:13.984Z,69.71
2022-10-08T06:48:46.745Z,69.30
2022-10-08T06:49:26.623Z,69.23
2022-10-08T06:49:58.781Z,68.67
2022-10-08T06:50:30.944Z,68.59
2022-10-08T06:51:08.147Z,68.99
2022-10-08T06:51:41.019Z,68.82
2022-10-08T06:52:13.192Z,69.03
2022-10-08T06:52:49.497Z,68.68
2022-10-08T06:53:21.966Z,68.95
2022-10-08T06:53:58.705Z,68.76
2022-10-08T06:54:36.254Z,68.83
2022-10-08T06:55:08.813Z,68.83
2022-10-08T06:55:41.459Z,68.21
2022-10-08T06:56:18.288Z,68.41
2022-10-08T06:56:50.422Z,68.42
2022-10-08T06:57:22.520Z,68.42
2022-10-08T06:57:57.223Z,68.12
2022-10-08T06:58:30.218Z,68.15
2022-10-08T06:59:02.371Z,68.35
2022-10-08T06:59:37.061Z,68.26
2022-10-08T07:00:10.766Z,68.09
2022-10-08T07:00:42.905Z,68.32
2022-10-08T07:01:19.902Z,68.40
2022-10-08T07:01:52.099Z,68.44
2022-10-08T07:02:26.883Z,68.04
2022-10-08T07:03:02.629Z,68.41
2022-10-08T07:03:35.296Z,68.25
2022-10-08T07:04:10.017Z,68.10
2022-10-08T07:04:42.235Z,68.09
2022-10-08T07:05:14.535Z,68.26
2022-10-08T07:05:49.289Z,68.28
2022-10-08T07:06:22.103Z,67.93
2022-10-08T07:06:56.770Z,68.10
2022-10-08T07:07:28.848Z,67.89
2022-10-08T07:08:01.092Z,67.94
2022-10-08T07:08:33.576Z,67.99
2022-10-08T07:09:10.449Z,67.60
2022-10-08T07:09:42.546Z,68.06
2022-10-08T07:10:17.759Z,68.07
2022-10-08T07:10:51.444Z,68.17
2022-10-08T07:11:26.763Z,68.35
2022-10-08T07:11:58.865Z,68.48
2022-10-08T07:12:31.606Z,68.43
2022-10-08T07:13:06.319Z,67.92
2022-10-08T07:13:39.004Z,68.02
2022-10-08T07:14:13.717Z,68.49
2022-10-08T07:14:45.904Z,68.50
2022-10-08T07:15:18.019Z,68.08
2022-10-08T07:15:52.733Z,68.31
2022-10-08T07:16:26.838Z,67.68
2022-10-08T07:16:59.000Z,67.73
2022-10-08T07:17:36.275Z,68.26
2022-10-08T07:18:11.827Z,67.86
2022-10-08T07:18:47.048Z,67.89
2022-10-08T07:19:19.113Z,67.86
2022-10-08T07:19:51.231Z,67.85
2022-10-08T07:20:25.959Z,67.88
2022-10-08T07:20:58.448Z,67.85
2022-10-08T07:21:31.066Z,67.70
2022-10-08T07:22:05.773Z,67.83
2022-10-08T07:22:37.873Z,67.55
2022-10-08T07:23:09.951Z,67.45
2022-10-08T07:23:44.998Z,67.49
2022-10-08T07:24:17.215Z,67.66
2022-10-08T07:24:49.326Z,67.41
2022-10-08T07:25:21.451Z,67.77
2022-10-08T07:26:01.517Z,67.48
2022-10-08T07:26:35.106Z,67.51
2022-10-08T07:27:07.207Z,67.54
2022-10-08T07:27:44.920Z,67.33
2022-10-08T07:28:17.318Z,67.31
2022-10-08T07:28:52.017Z,66.86
2022-10-08T07:29:27.783Z,67.20
2022-10-08T07:29:59.869Z,66.69
2022-10-08T07:30:33.125Z,66.42
2022-10-08T07:31:05.765Z,66.48
2022-10-08T07:31:41.608Z,66.34
2022-10-08T07:32:13.715Z,66.38